createdAt,value
2023-02-12T00:00:06.629Z,27.27
2023-02-12T00:03:01.671Z,26.60
2023-02-12T00:05:48.018Z,28.20
2023-02-12T00:08:34.377Z,26.67
2023-02-12T00:11:23.685Z,27.83
2023-02-12T00:14:10.193Z,27.87
2023-02-12T00:16:56.610Z,29.40
2023-02-12T00:19:43.161Z,26.40
2023-02-12T00:22:29.583Z,27.33
2023-02-12T00:25:17.116Z,28.23
2023-02-12T00:28:03.802Z,24.20
2023-02-12T00:30:50.492Z,26.13
2023-02-12T00:33:37.200Z,30.90
2023-02-12T00:36:25.434Z,32.80
2023-02-12T00:39:12.311Z,29.80
2023-02-12T00:41:59.608Z,27.67
2023-02-12T00:44:45.855Z,25.23
2023-02-12T00:47:32.193Z,24.73
2023-02-12T00:50:18.637Z,25.93
2023-02-12T00:53:04.950Z,22.90
2023-02-12T00:55:51.534Z,22.57
2023-02-12T00:58:37.897Z,27.77
2023-02-12T01:01:26.432Z,25.77
2023-02-12T01:04:13.114Z,21.40
2023-02-12T01:06:59.587Z,22.70
2023-02-12T01:09:45.868Z,23.63
2023-02-12T01:12:32.192Z,29.63
2023-02-12T01:15:19.238Z,29.80
2023-02-12T01:18:05.513Z,25.07
2023-02-12T01:20:51.676Z,25.93
2023-02-12T01:23:37.923Z,25.77
2023-02-12T01:26:24.890Z,26.63
2023-02-12T01:29:11.132Z,26.60
2023-02-12T01:31:57.553Z,24.73
2023-02-12T01:34:43.989Z,25.60
2023-02-12T01:37:30.286Z,24.30
2023-02-12T01:40:17.863Z,25.40
2023-02-12T01:43:07.301Z,22.60
2023-02-12T01:45:54.280Z,28.57
2023-02-12T01:48:45.134Z,23.37
2023-02-12T01:51:33.070Z,22.87
2023-02-12T01:54:25.721Z,26.57
2023-02-12T01:57:14.260Z,22.37
2023-02-12T02:00:03.539Z,24.90
2023-02-12T02:03:02.092Z,28.90
2023-02-12T02:05:48.448Z,24.30
2023-02-12T02:08:36.063Z,22.90
2023-02-12T02:11:41.520Z,24.63
2023-02-12T02:14:34.737Z,22.40
2023-02-12T02:17:33.736Z,26.63
2023-02-12T02:20:59.374Z,27.67
2023-02-12T02:24:02.171Z,28.57
2023-02-12T02:27:11.669Z,28.53
2023-02-12T02:30:26.585Z,27.30
2023-02-12T02:33:18.555Z,21.70
2023-02-12T02:36:17.768Z,25.50
2023-02-12T02:39:23.287Z,26.30
2023-02-12T02:42:22.025Z,25.93
2023-02-12T02:45:14.840Z,23.40
2023-02-12T02:48:08.289Z,24.10
2023-02-12T02:51:01.532Z,25.23
2023-02-12T02:54:01.709Z,26.00
2023-02-12T02:56:55.385Z,26.00
2023-02-12T02:59:50.489Z,23.43
2023-02-12T03:02:42.475Z,25.03
2023-02-12T03:05:50.718Z,22.87
2023-02-12T03:08:44.479Z,24.97
2023-02-12T03:11:33.655Z,25.13
2023-02-12T03:14:33.408Z,25.20
2023-02-12T03:17:32.688Z,21.60
2023-02-12T03:20:24.053Z,21.13
2023-02-12T03:23:16.829Z,22.10
2023-02-12T03:26:12.813Z,25.00
2023-02-12T03:28:59.390Z,25.23
2023-02-12T03:32:12.205Z,23.67
2023-02-12T03:35:04.524Z,31.03
2023-02-12T03:38:03.297Z,21.00
2023-02-12T03:41:04.864Z,24.53
2023-02-12T03:43:55.754Z,26.93
2023-02-12T03:46:57.792Z,24.93
2023-02-12T03:49:55.874Z,27.70
2023-02-12T03:52:43.549Z,25.53
2023-02-12T03:55:32.311Z,25.07
2023-02-12T03:58:23.402Z,27.23
2023-02-12T04:01:11.210Z,23.77
2023-02-12T04:03:58.603Z,21.60
2023-02-12T04:06:47.880Z,26.67
2023-02-12T04:09:34.223Z,22.30
2023-02-12T04:12:29.311Z,23.20
2023-02-12T04:15:41.913Z,23.40
2023-02-12T04:18:43.337Z,23.33
2023-02-12T04:21:29.471Z,27.67
2023-02-12T04:24:30.953Z,24.23
2023-02-12T04:27:25.768Z,26.50
2023-02-12T04:30:32.047Z,25.73
2023-02-12T04:33:22.790Z,28.13
2023-02-12T04:36:16.789Z,31.97
2023-02-12T04:39:11.230Z,24.23
2023-02-12T04:42:02.026Z,26.97
2023-02-12T04:44:48.496Z,25.90
2023-02-12T04:47:34.796Z,26.40
2023-02-12T04:50:21.491Z,28.13
2023-02-12T04:53:08.646Z,22.47
2023-02-12T04:55:55.619Z,27.67
2023-02-12T04:58:42.401Z,25.27
2023-02-12T05:01:31.260Z,27.37
2023-02-12T05:04:18.611Z,25.93
2023-02-12T05:07:04.914Z,24.50
2023-02-12T05:09:51.423Z,35.77
2023-02-12T05:12:37.859Z,37.90
2023-02-12T05:15:24.154Z,25.90
2023-02-12T05:18:10.300Z,30.20
2023-02-12T05:20:58.494Z,22.63
2023-02-12T05:23:44.760Z,29.27
2023-02-12T05:26:30.854Z,25.83
2023-02-12T05:29:18.475Z,26.07
2023-02-12T05:32:06.859Z,29.57
2023-02-12T05:34:53.236Z,27.17
2023-02-12T05:37:39.908Z,32.60
2023-02-12T05:40:26.319Z,35.63
2023-02-12T05:43:13.083Z,29.87
2023-02-12T05:46:00.851Z,28.07
2023-02-12T05:48:48.387Z,27.77
2023-02-12T05:51:35.011Z,26.70
2023-02-12T05:54:21.210Z,26.93
2023-02-12T05:57:07.528Z,27.23
2023-02-12T05:59:54.196Z,24.70
2023-02-12T06:02:40.738Z,30.10
2023-02-12T06:05:27.329Z,25.03
2023-02-12T06:08:13.444Z,28.97
2023-02-12T06:11:02.364Z,25.77
2023-02-12T06:13:49.090Z,28.13
2023-02-12T06:16:35.651Z,28.63
2023-02-12T06:19:22.363Z,25.17
2023-02-12T06:22:08.562Z,25.50
2023-02-12T06:24:54.724Z,24.60
2023-02-12T06:27:41.310Z,26.77
2023-02-12T06:30:27.720Z,24.60
2023-02-12T06:33:14.147Z,23.33
2023-02-12T06:36:04.413Z,26.20
2023-02-12T06:38:51.194Z,25.83
2023-02-12T06:41:37.807Z,29.93
2023-02-12T06:44:24.150Z,25.43
2023-02-12T06:47:10.563Z,23.07
2023-02-12T06:49:57.227Z,28.60
2023-02-12T06:52:43.730Z,25.20
2023-02-12T06:55:30.071Z,26.87
2023-02-12T06:58:16.335Z,24.10
2023-02-12T07:01:29.799Z,26.20
2023-02-12T07:04:16.645Z,28.80
2023-02-12T07:07:04.285Z,27.10
2023-02-12T07:09:50.683Z,19.33
2023-02-12T07:12:37.091Z,28.37
2023-02-12T07:15:23.619Z,28.67
2023-02-12T07:18:10.137Z,28.53
2023-02-12T07:20:56.819Z,33.03
2023-02-12T07:23:50.856Z,25.13
2023-02-12T07:26:38.226Z,26.90
2023-02-12T07:29:24.528Z,26.80
2023-02-12T07:32:11.076Z,27.00
2023-02-12T07:34:57.565Z,28.60
2023-02-12T07:37:44.027Z,28.73
2023-02-12T07:40:30.239Z,28.13
2023-02-12T07:43:16.650Z,26.70
2023-02-12T07:46:14.738Z,30.80
2023-02-12T07:49:04.325Z,28.37
2023-02-12T07:51:50.657Z,35.67
2023-02-12T07:54:36.961Z,31.07
2023-02-12T07:57:23.190Z,30.67
2023-02-12T08:00:10.765Z,30.30
2023-02-12T08:02:59.660Z,29.43
2023-02-12T08:05:46.058Z,32.40
2023-02-12T08:08:32.278Z,25.53
2023-02-12T08:11:18.959Z,26.10
2023-02-12T08:14:05.590Z,29.10
2023-02-12T08:16:52.477Z,23.33
2023-02-12T08:19:40.991Z,25.80
2023-02-12T08:22:27.476Z,27.63
2023-02-12T08:25:13.766Z,21.73
2023-02-12T08:28:00.269Z,27.37
2023-02-12T08:30:46.707Z,27.57
2023-02-12T08:33:33.259Z,25.50
2023-02-12T08:36:22.120Z,30.63
2023-02-12T08:39:08.654Z,29.50
2023-02-12T08:41:56.530Z,29.50
2023-02-12T08:44:43.007Z,27.53
2023-02-12T08:47:31.307Z,28.83
2023-02-12T08:50:17.803Z,27.90
2023-02-12T08:53:03.905Z,27.80
2023-02-12T08:55:50.641Z,26.23
2023-02-12T08:58:37.747Z,23.83
2023-02-12T09:01:26.084Z,29.50
2023-02-12T09:04:18.375Z,26.47
2023-02-12T09:07:04.970Z,26.60
2023-02-12T09:09:51.239Z,26.13
2023-02-12T09:12:37.528Z,29.33
2023-02-12T09:15:23.994Z,31.00
2023-02-12T09:18:11.820Z,28.60
2023-02-12T09:21:06.847Z,26.00
2023-02-12T09:23:53.533Z,30.37
2023-02-12T09:26:40.350Z,26.43
2023-02-12T09:29:26.417Z,29.67
2023-02-12T09:32:13.020Z,27.57
2023-02-12T09:34:59.474Z,33.83
2023-02-12T09:37:46.075Z,29.83
2023-02-12T09:40:50.989Z,30.83
2023-02-12T09:43:48.232Z,27.57
2023-02-12T09:46:53.784Z,31.87
2023-02-12T09:50:06.318Z,29.60
2023-02-12T09:52:54.656Z,27.63
2023-02-12T09:55:41.276Z,33.43
2023-02-12T09:58:41.400Z,29.10
2023-02-12T10:01:28.390Z,34.13
2023-02-12T10:04:15.160Z,31.27
2023-02-12T10:07:05.077Z,29.53
2023-02-12T10:10:17.863Z,26.30
2023-02-12T10:13:13.918Z,26.97
2023-02-12T10:16:32.346Z,28.50
2023-02-12T10:20:01.091Z,29.37
2023-02-12T10:22:56.487Z,26.87
2023-02-12T10:26:01.250Z,30.77
2023-02-12T10:28:48.107Z,28.73
2023-02-12T10:31:39.599Z,29.40
2023-02-12T10:34:32.194Z,26.83
2023-02-12T10:37:54.054Z,26.13
2023-02-12T10:40:44.424Z,30.53
2023-02-12T10:43:31.416Z,25.47
2023-02-12T10:46:17.971Z,25.87
2023-02-12T10:49:06.430Z,26.10
2023-02-12T10:52:14.323Z,25.13
2023-02-12T10:55:01.308Z,26.20
2023-02-12T10:57:47.663Z,25.63
2023-02-12T11:00:37.491Z,23.33
2023-02-12T11:03:28.711Z,21.43
2023-02-12T11:06:19.967Z,16.40
2023-02-12T11:09:06.362Z,18.10
2023-02-12T11:11:53.227Z,13.90
2023-02-12T11:14:39.541Z,11.77
2023-02-12T11:17:33.652Z,9.03
2023-02-12T11:20:24.720Z,8.80
2023-02-12T11:23:29.702Z,9.43
2023-02-12T11:26:19.043Z,10.50
2023-02-12T11:29:24.442Z,11.90
2023-02-12T11:32:19.700Z,11.20
2023-02-12T11:35:18.548Z,9.17
2023-02-12T11:38:05.198Z,11.70
2023-02-12T11:40:57.144Z,15.17
2023-02-12T11:43:44.944Z,11.73
2023-02-12T11:46:31.377Z,12.20
2023-02-12T11:49:23.812Z,13.57
2023-02-12T11:52:20.975Z,8.23
2023-02-12T11:55:23.607Z,10.90
2023-02-12T11:58:13.113Z,12.10
2023-02-12T12:01:05.817Z,11.40
2023-02-12T12:04:14.103Z,10.77
2023-02-12T12:07:13.944Z,8.07
2023-02-12T12:10:07.857Z,7.73
2023-02-12T12:12:59.611Z,6.53
2023-02-12T12:16:11.571Z,5.90
2023-02-12T12:19:40.501Z,6.70
2023-02-12T12:22:54.700Z,7.13
2023-02-12T12:25:49.412Z,6.40
2023-02-12T12:28:58.874Z,8.00
2023-02-12T12:31:52.562Z,6.87
2023-02-12T12:34:39.208Z,5.57
2023-02-12T12:37:38.598Z,5.67
2023-02-12T12:40:24.950Z,6.77
2023-02-12T12:43:20.879Z,5.77
2023-02-12T12:46:25.860Z,11.60
2023-02-12T12:49:31.980Z,5.57
2023-02-12T12:52:38.908Z,7.27
2023-02-12T12:55:56.095Z,5.97
2023-02-12T12:58:55.521Z,7.13
2023-02-12T13:01:47.827Z,6.87
2023-02-12T13:05:04.533Z,7.73
2023-02-12T13:07:57.533Z,7.07
2023-02-12T13:11:12.148Z,5.33
2023-02-12T13:14:22.826Z,5.70
2023-02-12T13:17:37.085Z,6.17
2023-02-12T13:20:38.026Z,3.93
2023-02-12T13:23:53.553Z,4.00
2023-02-12T13:26:54.444Z,5.40
2023-02-12T13:29:47.833Z,3.70
2023-02-12T13:32:50.672Z,5.43
2023-02-12T13:35:43.213Z,5.03
2023-02-12T13:38:56.267Z,2.43
2023-02-12T13:41:48.582Z,4.43
2023-02-12T13:44:47.325Z,5.60
2023-02-12T13:47:52.201Z,4.93
2023-02-12T13:50:44.957Z,4.20
2023-02-12T13:53:49.452Z,3.73
2023-02-12T13:57:00.121Z,4.20
2023-02-12T13:59:54.699Z,4.17
2023-02-12T14:02:43.686Z,3.20
2023-02-12T14:05:32.271Z,5.23
2023-02-12T14:08:37.596Z,3.80
2023-02-12T14:11:26.100Z,3.00
2023-02-12T14:14:13.234Z,4.67
2023-02-12T14:17:27.984Z,5.73
2023-02-12T14:20:23.265Z,5.03
2023-02-12T14:23:28.948Z,3.87
2023-02-12T14:26:16.838Z,3.80
2023-02-12T14:29:06.785Z,3.80
2023-02-12T14:31:53.668Z,5.03
2023-02-12T14:34:40.450Z,4.97
2023-02-12T14:37:37.524Z,5.70
2023-02-12T14:40:51.005Z,4.97
2023-02-12T14:43:57.441Z,4.97
2023-02-12T14:46:53.937Z,5.50
2023-02-12T14:49:52.046Z,6.57
2023-02-12T14:52:41.025Z,5.00
2023-02-12T14:55:34.163Z,6.07
2023-02-12T14:58:24.407Z,3.77
2023-02-12T15:01:11.494Z,3.80
2023-02-12T15:04:01.077Z,4.90
2023-02-12T15:07:08.149Z,6.10
2023-02-12T15:10:07.416Z,5.67
2023-02-12T15:13:23.475Z,3.97
2023-02-12T15:16:37.271Z,5.43
2023-02-12T15:19:34.146Z,3.50
2023-02-12T15:22:33.964Z,4.60
2023-02-12T15:25:30.860Z,5.20
2023-02-12T15:28:24.158Z,5.07
2023-02-12T15:31:14.861Z,3.97
2023-02-12T15:34:03.664Z,4.23
2023-02-12T15:36:50.906Z,3.93
2023-02-12T15:39:44.155Z,4.17
2023-02-12T15:42:30.713Z,4.27
2023-02-12T15:45:26.830Z,3.53
2023-02-12T15:48:18.589Z,4.00
2023-02-12T15:51:11.050Z,3.63
2023-02-12T15:53:59.579Z,3.30
2023-02-12T15:56:46.292Z,3.73
2023-02-12T15:59:32.648Z,3.23
2023-02-12T16:02:28.374Z,3.43
2023-02-12T16:05:16.842Z,5.37
2023-02-12T16:08:03.502Z,4.10
2023-02-12T16:10:53.670Z,5.47
2023-02-12T16:13:47.468Z,4.80
2023-02-12T16:16:46.042Z,4.03
2023-02-12T16:19:33.022Z,3.07
2023-02-12T16:22:28.807Z,5.37
2023-02-12T16:25:24.536Z,7.77
2023-02-12T16:28:19.937Z,11.83
2023-02-12T16:31:12.539Z,7.77
2023-02-12T16:33:59.365Z,6.67
2023-02-12T16:36:47.199Z,7.17
2023-02-12T16:39:59.678Z,5.23
2023-02-12T16:42:48.935Z,5.73
2023-02-12T16:45:36.954Z,5.67
2023-02-12T16:48:25.238Z,5.00
2023-02-12T16:51:32.422Z,5.40
2023-02-12T16:54:35.414Z,7.63
2023-02-12T16:57:21.782Z,5.90
2023-02-12T17:09:19.504Z,6.73
2023-02-12T17:12:06.049Z,7.13
2023-02-12T17:14:52.976Z,5.80
2023-02-12T17:17:39.418Z,5.83
2023-02-12T17:20:25.684Z,8.07
2023-02-12T17:23:12.806Z,7.50
2023-02-12T17:25:59.407Z,10.20
2023-02-12T17:28:45.907Z,11.57
2023-02-12T17:31:33.360Z,8.97
2023-02-12T17:34:20.415Z,17.40
2023-02-12T17:37:07.134Z,14.50
2023-02-12T17:39:53.376Z,9.90
2023-02-12T17:42:39.845Z,13.50
2023-02-12T17:45:26.070Z,12.53
2023-02-12T17:48:13.971Z,7.37
2023-02-12T17:51:00.446Z,8.47
2023-02-12T17:53:47.614Z,8.33
2023-02-12T17:56:34.802Z,8.30
2023-02-12T17:59:21.023Z,7.47
2023-02-12T18:02:08.030Z,8.83
2023-02-12T18:04:54.326Z,6.03
2023-02-12T18:07:40.609Z,8.47
2023-02-12T18:10:26.867Z,7.57
2023-02-12T18:13:14.040Z,8.23
2023-02-12T18:16:00.228Z,16.43
2023-02-12T18:18:46.633Z,19.03
2023-02-12T18:21:34.942Z,19.43
2023-02-12T18:24:21.486Z,23.13
2023-02-12T18:27:07.820Z,34.83
2023-02-12T18:29:54.617Z,38.93
2023-02-12T18:32:40.800Z,34.83
2023-02-12T18:35:26.993Z,26.87
2023-02-12T18:38:13.645Z,17.63
2023-02-12T18:41:00.484Z,15.83
2023-02-12T18:43:47.300Z,14.17
2023-02-12T18:46:33.719Z,12.87
2023-02-12T18:49:19.902Z,15.27
2023-02-12T18:52:06.657Z,12.37
2023-02-12T18:54:53.142Z,12.57
2023-02-12T18:57:39.652Z,9.70
2023-02-12T19:00:26.405Z,12.13
2023-02-12T19:03:12.656Z,13.43
2023-02-12T19:06:04.000Z,17.17
2023-02-12T19:08:55.602Z,18.50
2023-02-12T19:11:43.494Z,20.13
2023-02-12T19:14:29.901Z,13.33
2023-02-12T19:17:16.062Z,18.07
2023-02-12T19:20:02.328Z,20.20
2023-02-12T19:22:48.801Z,20.53
2023-02-12T19:25:42.532Z,21.60
2023-02-12T19:28:29.012Z,29.20
2023-02-12T19:31:25.725Z,24.50
2023-02-12T19:34:16.935Z,37.30
2023-02-12T19:37:03.009Z,23.80
2023-02-12T19:39:49.210Z,24.43
2023-02-12T19:42:35.541Z,21.67
2023-02-12T19:45:21.731Z,16.53
2023-02-12T19:48:07.968Z,15.47
2023-02-12T19:50:54.928Z,16.13
2023-02-12T19:53:42.000Z,15.70
2023-02-12T19:56:28.898Z,17.53
2023-02-12T19:59:18.542Z,15.10
2023-02-12T20:02:04.890Z,13.33
2023-02-12T20:04:51.124Z,14.40
2023-02-12T20:07:37.268Z,14.40
2023-02-12T20:10:23.941Z,14.67
2023-02-12T20:13:10.997Z,15.17
2023-02-12T20:16:02.725Z,15.70
2023-02-12T20:18:53.297Z,15.47
2023-02-12T20:21:39.780Z,19.00
2023-02-12T20:24:30.377Z,23.70
2023-02-12T20:27:16.811Z,18.47
2023-02-12T20:30:04.228Z,17.90
2023-02-12T20:32:50.518Z,19.23
2023-02-12T20:35:37.248Z,21.53
2023-02-12T20:38:23.487Z,21.93
2023-02-12T20:41:10.576Z,21.37
2023-02-12T20:44:00.682Z,26.83
2023-02-12T20:46:49.451Z,15.80
2023-02-12T20:49:37.497Z,18.30
2023-02-12T20:52:24.500Z,21.27
2023-02-12T20:55:11.166Z,20.00
2023-02-12T20:57:57.654Z,18.67
2023-02-12T21:00:44.082Z,20.80
2023-02-12T21:03:30.417Z,21.33
2023-02-12T21:06:18.158Z,21.63
2023-02-12T21:09:04.759Z,17.03
2023-02-12T21:11:51.064Z,24.00
2023-02-12T21:14:37.468Z,22.57
2023-02-12T21:17:24.692Z,27.33
2023-02-12T21:20:11.341Z,20.20
2023-02-12T21:22:58.644Z,20.00
2023-02-12T21:25:45.222Z,18.63
2023-02-12T21:28:35.030Z,19.20
2023-02-12T21:31:24.121Z,16.53
2023-02-12T21:34:17.019Z,15.00
2023-02-12T21:37:03.244Z,15.03
2023-02-12T21:39:49.475Z,16.87
2023-02-12T21:42:36.146Z,18.10
2023-02-12T21:45:22.692Z,15.07
2023-02-12T21:48:09.341Z,18.17
2023-02-12T21:50:56.168Z,17.37
2023-02-12T21:53:42.681Z,18.67
2023-02-12T21:56:29.844Z,16.30
2023-02-12T21:59:17.146Z,18.83
2023-02-12T22:02:03.485Z,16.37
2023-02-12T22:04:49.883Z,19.30
2023-02-12T22:07:36.192Z,17.17
2023-02-12T22:10:22.408Z,21.27
2023-02-12T22:13:09.053Z,17.67
2023-02-12T22:15:55.743Z,16.23
2023-02-12T22:18:43.345Z,19.10
2023-02-12T22:21:32.757Z,13.37
2023-02-12T22:24:19.729Z,15.03
2023-02-12T22:27:06.375Z,15.83
2023-02-12T22:29:52.967Z,15.47
2023-02-12T22:32:39.140Z,16.90
2023-02-12T22:35:25.305Z,17.80
2023-02-12T22:38:11.820Z,19.40
2023-02-12T22:40:58.685Z,16.90
2023-02-12T22:43:45.278Z,19.53
2023-02-12T22:46:33.101Z,18.20
2023-02-12T22:49:19.365Z,17.43
2023-02-12T22:52:05.895Z,17.13
2023-02-12T22:54:52.153Z,17.70
2023-02-12T22:57:38.616Z,16.50
2023-02-12T23:00:24.935Z,18.57
2023-02-12T23:03:11.448Z,23.50
2023-02-12T23:06:01.639Z,18.40
2023-02-12T23:08:53.069Z,17.37
2023-02-12T23:11:39.683Z,28.53
2023-02-12T23:14:26.248Z,18.57
2023-02-12T23:17:12.487Z,20.23
2023-02-12T23:19:59.128Z,19.67
2023-02-12T23:22:45.437Z,21.87
2023-02-12T23:25:31.703Z,20.17
2023-02-12T23:28:17.976Z,20.27
2023-02-12T23:31:04.726Z,22.33
2023-02-12T23:33:51.506Z,20.70
2023-02-12T23:36:37.961Z,21.70
2023-02-12T23:39:24.293Z,18.87
2023-02-12T23:42:10.460Z,24.67
2023-02-12T23:44:57.622Z,21.87
2023-02-12T23:47:43.861Z,26.57
2023-02-12T23:50:30.447Z,19.87
2023-02-12T23:53:17.749Z,18.60
2023-02-12T23:56:04.041Z,16.27
2023-02-12T23:58:50.479Z,19.23
